Time;durP1;ratioP1;P1;durP2;ratioP2;P2;SDS_P1;SDS_P2;PMS_P1;PMS_P2;Temp;Humidity;BMP_temperature;BMP_pressure;BME280_temperature;BME280_humidity;BME280_pressure;Samples;Min_cycle;Max_cycle;Signal;HPM_P1;HPM_P2
2023/03/22 00:00:36;;;;;;;21.23;8.32;;;10.30;99.90;;;;;;5054288;28;20055;-36
2023/03/22 00:03:03;;;;;;;16.00;8.07;;;10.20;99.90;;;;;;5054225;28;20053;-36
2023/03/22 00:05:31;;;;;;;18.20;8.63;;;10.20;99.90;;;;;;5054084;28;20045;-35
2023/03/22 00:07:58;;;;;;;16.13;8.23;;;10.20;99.90;;;;;;5065978;28;20068;-36
2023/03/22 00:10:26;;;;;;;19.67;8.52;;;10.20;99.90;;;;;;5061662;28;20053;-36
2023/03/22 00:12:53;;;;;;;17.67;8.55;;;10.20;99.90;;;;;;5052112;28;20053;-35
2023/03/22 00:15:20;;;;;;;14.50;7.70;;;10.10;99.90;;;;;;5064358;28;20106;-36
2023/03/22 00:17:46;;;;;;;17.95;8.30;;;10.10;99.90;;;;;;5056232;28;20081;-36
2023/03/22 00:20:13;;;;;;;14.30;7.38;;;10.10;99.90;;;;;;5051383;28;20455;-35
2023/03/22 00:22:41;;;;;;;19.10;7.35;;;10.10;99.90;;;;;;5053436;28;20051;-36
2023/03/22 00:25:08;;;;;;;13.20;7.40;;;10.10;99.90;;;;;;5052277;28;20054;-35
2023/03/22 00:27:35;;;;;;;15.57;7.47;;;10.00;99.90;;;;;;5055070;28;20049;-36
2023/03/22 00:30:02;;;;;;;16.52;7.50;;;10.00;99.90;;;;;;5053901;28;20041;-35
2023/03/22 00:32:29;;;;;;;16.52;7.65;;;9.90;99.90;;;;;;5055553;28;20052;-35
2023/03/22 00:34:56;;;;;;;17.70;6.88;;;9.90;99.90;;;;;;5052367;28;20063;-36
2023/03/22 00:37:22;;;;;;;17.00;7.32;;;9.90;99.90;;;;;;5053536;28;20081;-35
2023/03/22 00:39:50;;;;;;;16.75;7.13;;;9.90;99.90;;;;;;5054893;28;20445;-35
2023/03/22 00:42:17;;;;;;;14.77;6.00;;;9.90;99.90;;;;;;5053149;28;20076;-35
2023/03/22 00:44:44;;;;;;;13.70;5.80;;;9.80;99.90;;;;;;5053155;28;20080;-35
2023/03/22 00:47:11;;;;;;;17.45;6.45;;;9.80;99.90;;;;;;5051825;28;20118;-36
2023/03/22 00:49:37;;;;;;;17.40;5.93;;;9.80;99.90;;;;;;5061011;28;20073;-36
2023/03/22 00:52:05;;;;;;;19.80;6.07;;;9.80;99.90;;;;;;5070022;28;20138;-36
2023/03/22 00:54:32;;;;;;;17.92;5.32;;;9.80;99.90;;;;;;5053913;28;20471;-36
2023/03/22 00:57:00;;;;;;;17.60;5.68;;;9.70;99.90;;;;;;5051769;28;20096;-36
2023/03/22 00:59:27;;;;;;;21.55;5.60;;;9.70;99.90;;;;;;5054430;28;20053;-35
2023/03/22 01:01:55;;;;;;;16.48;5.38;;;9.80;99.90;;;;;;5053069;28;20049;-35
2023/03/22 01:04:24;;;;;;;16.95;5.38;;;9.70;99.90;;;;;;5051625;28;20118;-35
2023/03/22 01:06:57;;;;;;;17.02;4.70;;;9.70;99.90;;;;;;5052434;28;21301;-35
2023/03/22 01:09:27;;;;;;;12.20;4.68;;;9.80;99.90;;;;;;5067603;28;20524;-35
2023/03/22 01:11:55;;;;;;;13.40;4.20;;;9.70;99.90;;;;;;5052462;28;20095;-36
2023/03/22 01:14:23;;;;;;;14.45;4.63;;;9.80;99.90;;;;;;5053072;28;20056;-36
2023/03/22 01:16:50;;;;;;;16.77;4.38;;;9.70;99.90;;;;;;5052967;28;20114;-36
2023/03/22 01:19:16;;;;;;;15.18;4.32;;;9.70;99.90;;;;;;5063542;28;20536;-35
2023/03/22 01:21:43;;;;;;;13.00;3.90;;;9.80;99.90;;;;;;5052249;28;20069;-36
2023/03/22 01:24:10;;;;;;;11.70;3.72;;;9.70;99.90;;;;;;5053207;28;20049;-36
2023/03/22 01:26:37;;;;;;;16.67;4.43;;;9.70;99.90;;;;;;5050789;28;20447;-35
2023/03/22 01:29:04;;;;;;;15.20;4.13;;;9.70;99.90;;;;;;5053814;28;20408;-35
2023/03/22 01:31:32;;;;;;;13.98;3.50;;;9.80;99.90;;;;;;5052936;28;20374;-36
2023/03/22 01:33:59;;;;;;;12.43;3.70;;;9.70;99.90;;;;;;5057253;28;20435;-35
2023/03/22 01:36:26;;;;;;;16.75;4.00;;;9.70;99.90;;;;;;5056150;28;20049;-35
2023/03/22 01:38:53;;;;;;;13.13;3.88;;;9.70;99.90;;;;;;5053278;28;20053;-35
2023/03/22 01:41:20;;;;;;;12.02;3.50;;;9.70;99.90;;;;;;5053112;28;20049;-36
2023/03/22 01:44:11;;;;;;;14.05;3.05;;;9.80;99.90;;;;;;5054157;28;20064;-35
2023/03/22 01:46:39;;;;;;;16.00;3.72;;;9.70;99.90;;;;;;5050426;28;20077;-35
2023/03/22 01:49:06;;;;;;;12.52;2.90;;;9.70;99.90;;;;;;5051262;28;20572;-35
2023/03/22 01:51:33;;;;;;;12.55;3.33;;;9.70;99.90;;;;;;5053481;28;20098;-35
2023/03/22 01:54:01;;;;;;;12.13;3.22;;;9.70;99.90;;;;;;5053296;28;20056;-35
2023/03/22 01:56:30;;;;;;;10.82;2.72;;;9.80;99.90;;;;;;5050017;28;20093;-35
2023/03/22 01:58:56;;;;;;;15.13;3.25;;;9.70;99.90;;;;;;5052209;28;20100;-36
2023/03/22 02:01:23;;;;;;;14.07;3.00;;;9.70;99.90;;;;;;5037049;28;20107;-36
2023/03/22 02:03:53;;;;;;;15.82;3.13;;;9.70;99.90;;;;;;5053596;28;20056;-36
2023/03/22 02:06:20;;;;;;;16.60;2.90;;;9.70;99.90;;;;;;5049937;28;20055;-36
2023/03/22 02:08:46;;;;;;;14.00;3.28;;;9.70;99.90;;;;;;5052470;28;20052;-36
2023/03/22 02:11:14;;;;;;;16.85;3.25;;;9.70;99.90;;;;;;5052586;28;20049;-36
2023/03/22 02:14:07;;;;;;;12.55;3.00;;;9.80;99.90;;;;;;5052162;28;20060;-36
2023/03/22 02:16:38;;;;;;;11.73;2.78;;;9.70;99.90;;;;;;5048567;28;20098;-36
2023/03/22 02:19:29;;;;;;;12.77;3.10;;;9.70;99.90;;;;;;5044636;28;20077;-35
2023/03/22 02:22:24;;;;;;;13.88;3.53;;;9.70;99.90;;;;;;5037646;28;20052;-36
2023/03/22 02:25:03;;;;;;;14.75;3.28;;;9.70;99.90;;;;;;5041565;28;20518;-35
2023/03/22 02:27:59;;;;;;;11.60;3.22;;;9.70;99.90;;;;;;5051470;28;20048;-35
2023/03/22 02:30:39;;;;;;;15.18;3.47;;;9.70;99.90;;;;;;5055936;28;20049;-35
2023/03/22 02:33:46;;;;;;;15.95;3.25;;;9.70;99.90;;;;;;5067573;28;20056;-35
2023/03/22 02:36:29;;;;;;;11.43;3.17;;;9.70;99.90;;;;;;5065811;28;20107;-35
2023/03/22 02:39:15;;;;;;;16.27;3.13;;;9.80;99.90;;;;;;5051437;28;20132;-36
2023/03/22 02:41:51;;;;;;;13.93;3.10;;;9.70;99.90;;;;;;5068630;28;20106;-35
2023/03/22 02:44:24;;;;;;;14.57;4.00;;;9.70;99.90;;;;;;5051287;28;20106;-36
2023/03/22 02:46:54;;;;;;;16.00;3.53;;;9.70;99.90;;;;;;5046889;28;20818;-36
2023/03/22 02:49:23;;;;;;;15.40;3.80;;;9.70;99.90;;;;;;5051568;28;20060;-35
2023/03/22 02:51:52;;;;;;;12.80;3.60;;;9.70;99.90;;;;;;5050645;28;20052;-35
2023/03/22 02:54:21;;;;;;;15.40;4.18;;;9.70;99.90;;;;;;5050702;28;20492;-35
2023/03/22 02:56:49;;;;;;;16.73;4.72;;;9.70;99.90;;;;;;5067523;28;20095;-35
2023/03/22 02:59:16;;;;;;;14.05;4.60;;;9.70;99.90;;;;;;5047629;28;20060;-36
2023/03/22 03:01:45;;;;;;;12.93;3.80;;;9.70;99.90;;;;;;5050253;28;20068;-36
2023/03/22 03:04:14;;;;;;;18.35;4.32;;;9.70;99.90;;;;;;5050450;28;20087;-36
2023/03/22 03:06:45;;;;;;;16.52;4.20;;;9.70;99.90;;;;;;5062715;28;20049;-35
2023/03/22 03:09:12;;;;;;;17.30;4.38;;;9.70;99.90;;;;;;5051294;28;20056;-35
2023/03/22 03:11:40;;;;;;;19.42;4.45;;;9.70;99.90;;;;;;5048800;28;20060;-35
2023/03/22 03:14:07;;;;;;;18.48;4.55;;;9.70;99.90;;;;;;5049221;28;20063;-36
2023/03/22 03:16:35;;;;;;;16.13;4.13;;;9.70;99.90;;;;;;5050341;28;20361;-35
2023/03/22 03:19:06;;;;;;;14.45;4.30;;;9.70;99.90;;;;;;5048946;28;20183;-35
2023/03/22 03:21:34;;;;;;;19.25;4.50;;;9.70;99.90;;;;;;5051436;28;20063;-36
2023/03/22 03:24:11;;;;;;;11.38;3.58;;;9.60;99.90;;;;;;5050831;28;20118;-36
2023/03/22 03:26:43;;;;;;;17.80;3.72;;;9.60;99.90;;;;;;5050109;28;20049;-35
2023/03/22 03:29:11;;;;;;;;;;;9.60;99.90;;;;;;5049914;28;20072;-35
2023/03/22 03:31:40;;;;;;;14.50;4.03;;;9.60;99.90;;;;;;5050295;28;19920;-35
2023/03/22 03:34:10;;;;;;;22.40;4.20;;;9.60;99.90;;;;;;5050022;28;20045;-36
2023/03/22 03:36:38;;;;;;;14.00;4.00;;;9.60;99.90;;;;;;5051726;28;20049;-36
2023/03/22 03:39:06;;;;;;;14.80;4.30;;;9.60;99.90;;;;;;5040966;28;20099;-36
2023/03/22 03:41:33;;;;;;;15.32;4.07;;;9.50;99.90;;;;;;5049463;28;20045;-35
2023/03/22 03:44:01;;;;;;;16.38;3.78;;;9.60;99.90;;;;;;5051646;28;20056;-35
2023/03/22 03:46:29;;;;;;;19.70;4.20;;;9.60;99.90;;;;;;5049525;28;20136;-36
2023/03/22 03:48:56;;;;;;;12.25;3.35;;;9.60;99.90;;;;;;5048334;28;20581;-36
2023/03/22 03:51:23;;;;;;;11.02;3.38;;;9.60;99.90;;;;;;5053715;28;20052;-36
2023/03/22 03:53:50;;;;;;;15.43;3.78;;;9.60;99.90;;;;;;5047956;28;20123;-35
2023/03/22 03:56:16;;;;;;;12.52;3.00;;;9.60;99.90;;;;;;5050441;28;20111;-36
2023/03/22 03:58:43;;;;;;;12.13;3.55;;;9.60;99.90;;;;;;5032517;28;20061;-36
2023/03/22 04:01:11;;;;;;;10.43;3.55;;;9.60;99.90;;;;;;5046004;28;20106;-35
2023/03/22 04:03:38;;;;;;;11.50;3.22;;;9.60;99.90;;;;;;5049890;28;20436;-35
2023/03/22 04:06:07;;;;;;;13.82;3.70;;;9.60;99.90;;;;;;5050184;28;20127;-35
2023/03/22 04:08:34;;;;;;;14.50;4.18;;;9.60;99.90;;;;;;5064948;28;20049;-36
2023/03/22 04:11:01;;;;;;;17.73;4.68;;;9.60;99.90;;;;;;5050923;28;20103;-36
2023/03/22 04:13:28;;;;;;;15.02;4.45;;;9.60;99.90;;;;;;5057542;28;20200;-36
2023/03/22 04:15:56;;;;;;;12.07;5.07;;;9.70;99.90;;;;;;5045210;28;20396;-36
2023/03/22 04:18:26;;;;;;;14.30;5.70;;;9.60;99.90;;;;;;5046171;28;20048;-36
2023/03/22 04:20:55;;;;;;;13.65;5.78;;;9.60;99.90;;;;;;5049764;28;20056;-35
2023/03/22 04:23:24;;;;;;;20.92;7.95;;;9.70;99.90;;;;;;5060544;28;20049;-36
2023/03/22 04:25:51;;;;;;;16.60;7.45;;;9.70;99.90;;;;;;5050452;28;20106;-35
2023/03/22 04:28:18;;;;;;;17.27;7.35;;;9.70;99.90;;;;;;5048850;28;20057;-35
2023/03/22 04:30:49;;;;;;;15.73;7.78;;;9.70;99.90;;;;;;5052909;28;20055;-36
2023/03/22 04:33:16;;;;;;;17.50;8.30;;;9.70;99.90;;;;;;5049815;28;20094;-35
2023/03/22 04:35:45;;;;;;;16.85;9.88;;;9.70;99.90;;;;;;5050476;28;20041;-35
2023/03/22 04:38:12;;;;;;;21.85;10.07;;;9.80;99.90;;;;;;5042920;28;20080;-36
2023/03/22 04:40:45;;;;;;;19.70;9.95;;;9.80;99.90;;;;;;5049572;28;20059;-36
2023/03/22 04:43:12;;;;;;;20.95;10.73;;;9.80;99.90;;;;;;5044587;28;20044;-36
2023/03/22 04:45:40;;;;;;;22.50;11.52;;;9.80;99.90;;;;;;5052726;28;20049;-36
2023/03/22 04:48:09;;;;;;;24.33;11.77;;;9.90;99.90;;;;;;5066052;28;20098;-36
2023/03/22 04:50:37;;;;;;;21.00;12.50;;;9.90;99.90;;;;;;5068473;28;20040;-35
2023/03/22 04:53:05;;;;;;;23.73;12.80;;;9.90;99.90;;;;;;5054339;28;20048;-35
2023/03/22 04:55:33;;;;;;;23.80;12.50;;;9.90;99.90;;;;;;5052105;28;20094;-36
2023/03/22 04:57:59;;;;;;;22.38;13.40;;;9.90;99.90;;;;;;5051766;28;20204;-36
2023/03/22 05:00:29;;;;;;;26.30;13.57;;;9.90;99.90;;;;;;5061615;28;20574;-36
2023/03/22 05:02:57;;;;;;;19.92;13.20;;;10.00;99.90;;;;;;5053798;28;20049;-36
2023/03/22 05:05:23;;;;;;;24.05;13.80;;;10.00;99.90;;;;;;5052242;28;20056;-36
2023/03/22 05:07:50;;;;;;;25.05;13.63;;;10.00;99.90;;;;;;5055521;28;20496;-35
2023/03/22 05:10:19;;;;;;;23.23;13.40;;;10.00;99.90;;;;;;5052767;28;20096;-35
2023/03/22 05:12:46;;;;;;;24.48;14.27;;;10.00;99.90;;;;;;5045740;28;20085;-36
2023/03/22 05:15:12;;;;;;;24.27;13.75;;;10.00;99.90;;;;;;5058555;28;20459;-36
2023/03/22 05:17:39;;;;;;;24.83;14.80;;;10.00;99.90;;;;;;5049085;28;20069;-35
2023/03/22 05:20:09;;;;;;;23.42;13.82;;;10.00;99.90;;;;;;5047389;28;20136;-35
2023/03/22 05:22:39;;;;;;;25.65;14.75;;;10.00;99.90;;;;;;5061512;28;20106;-36
2023/03/22 05:25:06;;;;;;;26.30;14.75;;;9.90;99.90;;;;;;5053993;28;20053;-36
2023/03/22 05:27:37;;;;;;;26.73;14.60;;;9.90;99.90;;;;;;5043643;28;20057;-36
2023/03/22 05:30:06;;;;;;;24.20;14.90;;;10.00;99.90;;;;;;5057071;28;20047;-35
2023/03/22 05:32:32;;;;;;;23.83;14.27;;;10.00;99.90;;;;;;5046069;28;20320;-36
2023/03/22 05:35:03;;;;;;;26.30;15.38;;;10.00;99.90;;;;;;5047047;28;20065;-35
2023/03/22 05:37:30;;;;;;;26.08;15.13;;;10.00;99.90;;;;;;5051106;28;20033;-35
2023/03/22 05:39:57;;;;;;;25.45;13.93;;;9.90;99.90;;;;;;5056736;28;20107;-35
2023/03/22 05:42:24;;;;;;;26.45;14.30;;;9.90;99.90;;;;;;5056835;28;20088;-36
2023/03/22 05:44:52;;;;;;;26.77;15.27;;;9.90;99.90;;;;;;5051347;28;20053;-36
2023/03/22 05:47:19;;;;;;;24.10;15.70;;;9.90;99.90;;;;;;5050331;28;20060;-36
2023/03/22 05:49:46;;;;;;;24.85;14.52;;;9.90;99.90;;;;;;5050762;28;20103;-36
2023/03/22 05:52:12;;;;;;;23.10;14.50;;;10.00;99.90;;;;;;5049860;28;20053;-36
2023/03/22 05:54:40;;;;;;;23.42;13.65;;;10.00;99.90;;;;;;5052150;28;20092;-35
2023/03/22 05:57:07;;;;;;;24.70;14.82;;;10.00;99.90;;;;;;5066350;28;20106;-35
2023/03/22 05:59:34;;;;;;;24.05;14.88;;;10.00;99.90;;;;;;5051955;28;20124;-36
2023/03/22 06:02:02;;;;;;;23.70;14.15;;;9.90;99.90;;;;;;5051846;28;20102;-36
2023/03/22 06:04:29;;;;;;;23.27;14.25;;;9.90;99.90;;;;;;5049171;28;20111;-36
2023/03/22 06:06:56;;;;;;;27.40;15.30;;;10.00;99.90;;;;;;5055920;28;20091;-36
2023/03/22 06:09:22;;;;;;;25.52;14.43;;;9.90;99.90;;;;;;5050108;28;20045;-36
2023/03/22 06:11:49;;;;;;;23.60;14.68;;;9.90;99.90;;;;;;5049394;28;20080;-36
2023/03/22 06:14:16;;;;;;;23.52;14.38;;;9.90;99.90;;;;;;5052011;28;20048;-35
2023/03/22 06:16:43;;;;;;;22.60;13.98;;;10.00;99.90;;;;;;5061528;28;20107;-35
2023/03/22 06:19:11;;;;;;;25.63;14.63;;;10.00;99.90;;;;;;5050434;28;20045;-36
2023/03/22 06:21:38;;;;;;;25.70;14.48;;;10.00;99.90;;;;;;5060570;28;20052;-35
2023/03/22 06:24:05;;;;;;;23.55;14.23;;;10.00;99.90;;;;;;5070620;28;20544;-35
2023/03/22 06:26:32;;;;;;;20.08;13.60;;;10.00;99.90;;;;;;5060738;28;20052;-36
2023/03/22 06:28:59;;;;;;;20.00;13.13;;;10.00;99.90;;;;;;5051827;28;20057;-35
2023/03/22 06:31:25;;;;;;;27.90;14.35;;;10.10;99.90;;;;;;5050203;28;20126;-35
2023/03/22 06:33:52;;;;;;;21.27;13.75;;;10.10;99.90;;;;;;5052170;28;20122;-35
2023/03/22 06:36:20;;;;;;;27.52;13.40;;;10.10;99.90;;;;;;5052137;28;20118;-36
2023/03/22 06:38:47;;;;;;;27.10;12.73;;;10.10;99.90;;;;;;5052750;28;20052;-36
2023/03/22 06:41:14;;;;;;;23.98;13.75;;;10.20;99.90;;;;;;5053143;28;20060;-35
2023/03/22 06:43:41;;;;;;;23.15;13.02;;;10.20;99.90;;;;;;5051274;28;20102;-35
2023/03/22 06:46:08;;;;;;;23.15;13.45;;;10.20;99.90;;;;;;5051537;28;20061;-35
2023/03/22 06:48:35;;;;;;;19.50;12.50;;;10.30;99.90;;;;;;5051825;28;20485;-35
2023/03/22 06:51:01;;;;;;;25.15;12.85;;;10.30;99.90;;;;;;5052655;28;20049;-35
2023/03/22 06:53:30;;;;;;;21.88;12.27;;;10.30;99.90;;;;;;5050665;28;20061;-35
2023/03/22 06:55:56;;;;;;;20.55;11.68;;;10.40;99.90;;;;;;5050799;28;20056;-35
2023/03/22 06:58:23;;;;;;;26.60;12.13;;;10.40;99.90;;;;;;5052748;28;20044;-35
2023/03/22 07:00:50;;;;;;;21.25;11.10;;;10.40;99.90;;;;;;5052338;28;20402;-36
2023/03/22 07:03:17;;;;;;;20.60;12.43;;;10.50;99.90;;;;;;5052448;28;20091;-36
2023/03/22 07:05:44;;;;;;;19.00;11.25;;;10.50;99.90;;;;;;5052424;28;20424;-35
2023/03/22 07:08:11;;;;;;;21.83;11.05;;;10.50;99.90;;;;;;5052218;28;20091;-35
2023/03/22 07:10:39;;;;;;;16.95;10.85;;;10.60;99.90;;;;;;5051421;28;20114;-36
2023/03/22 07:13:06;;;;;;;20.55;10.38;;;10.50;99.90;;;;;;5050597;28;20044;-36
2023/03/22 07:15:33;;;;;;;21.35;10.82;;;10.60;99.90;;;;;;5052346;28;20060;-36
2023/03/22 07:18:00;;;;;;;17.38;9.90;;;10.60;99.90;;;;;;5051373;28;20138;-35
2023/03/22 07:20:27;;;;;;;17.50;9.82;;;10.60;99.90;;;;;;5050415;28;20054;-35
2023/03/22 07:22:54;;;;;;;22.48;10.13;;;10.70;99.90;;;;;;5049989;28;20111;-35
2023/03/22 07:25:21;;;;;;;17.50;9.55;;;10.70;99.90;;;;;;5051248;28;20451;-36
2023/03/22 07:27:49;;;;;;;22.17;9.18;;;10.80;99.90;;;;;;5051055;28;20080;-35
2023/03/22 07:30:16;;;;;;;22.98;9.32;;;10.80;99.90;;;;;;5052013;28;20594;-35
2023/03/22 07:32:43;;;;;;;21.40;9.88;;;10.80;99.90;;;;;;5051928;28;20404;-35
2023/03/22 07:35:09;;;;;;;16.88;8.90;;;10.80;99.90;;;;;;5051873;28;20084;-35
2023/03/22 07:37:36;;;;;;;17.00;8.80;;;10.90;99.90;;;;;;5051830;28;20052;-36
2023/03/22 07:40:04;;;;;;;19.77;8.65;;;11.00;99.90;;;;;;5051871;28;20049;-35
2023/03/22 07:42:31;;;;;;;15.95;8.35;;;11.00;99.90;;;;;;5050322;28;20106;-35
2023/03/22 07:44:59;;;;;;;16.73;8.13;;;11.00;99.90;;;;;;5067541;28;20087;-35
2023/03/22 07:47:26;;;;;;;16.65;8.10;;;11.00;99.90;;;;;;5066635;28;20053;-36
2023/03/22 07:49:53;;;;;;;13.20;7.47;;;11.00;99.90;;;;;;5050432;28;20048;-35
2023/03/22 07:52:19;;;;;;;16.17;7.18;;;11.00;99.90;;;;;;5051643;28;20055;-36
2023/03/22 07:54:46;;;;;;;15.40;6.82;;;11.00;99.90;;;;;;5050708;28;20143;-36
2023/03/22 07:57:13;;;;;;;15.77;7.22;;;11.00;99.90;;;;;;5051502;28;20497;-35
2023/03/22 07:59:40;;;;;;;16.55;6.93;;;11.00;99.90;;;;;;5050638;28;20068;-35
2023/03/22 08:02:09;;;;;;;15.40;6.47;;;11.00;99.90;;;;;;5050756;28;20397;-36
2023/03/22 08:04:36;;;;;;;19.02;7.22;;;11.00;99.90;;;;;;5052208;28;20053;-35
2023/03/22 08:07:03;;;;;;;14.48;6.15;;;10.90;99.90;;;;;;5050487;28;20073;-35
2023/03/22 08:09:30;;;;;;;17.55;6.25;;;11.00;99.90;;;;;;5050653;28;20562;-36
2023/03/22 08:11:56;;;;;;;14.18;5.43;;;11.00;99.90;;;;;;5051524;28;20057;-35
2023/03/22 08:14:23;;;;;;;13.30;6.15;;;11.00;99.90;;;;;;5053878;28;20541;-35
2023/03/22 08:16:50;;;;;;;14.45;6.30;;;11.00;99.90;;;;;;5055638;28;20088;-35
2023/03/22 08:19:18;;;;;;;15.63;6.28;;;11.10;99.90;;;;;;5054144;28;20128;-35
2023/03/22 08:21:45;;;;;;;11.77;5.93;;;11.10;99.90;;;;;;5054286;28;20041;-36
2023/03/22 08:24:12;;;;;;;15.35;5.72;;;11.10;99.90;;;;;;5055552;28;20052;-35
2023/03/22 08:26:39;;;;;;;19.60;6.57;;;11.20;99.90;;;;;;5055500;28;20056;-35
2023/03/22 08:29:06;;;;;;;14.68;5.80;;;11.10;99.90;;;;;;5054206;28;20110;-35
2023/03/22 08:31:33;;;;;;;16.98;6.60;;;11.10;99.90;;;;;;5052973;28;20049;-35
2023/03/22 08:33:59;;;;;;;15.82;6.20;;;11.10;99.90;;;;;;5054068;28;20106;-35
2023/03/22 08:36:28;;;;;;;16.95;5.30;;;11.10;99.90;;;;;;5054963;28;20044;-35
2023/03/22 08:38:54;;;;;;;14.88;5.20;;;11.10;99.90;;;;;;5055193;28;20052;-36
2023/03/22 08:41:22;;;;;;;17.90;5.15;;;11.10;99.90;;;;;;5055209;28;20102;-35
2023/03/22 08:43:49;;;;;;;16.67;5.50;;;11.20;99.90;;;;;;5055144;28;20049;-35
2023/03/22 08:46:16;;;;;;;18.10;5.18;;;11.10;99.90;;;;;;5053972;28;20079;-35
2023/03/22 08:48:49;;;;;;;12.88;5.00;;;11.20;99.90;;;;;;5053862;28;20049;-35
2023/03/22 08:51:16;;;;;;;13.80;5.00;;;11.20;99.90;;;;;;5053377;28;20052;-35
2023/03/22 08:53:44;;;;;;;13.38;5.40;;;11.30;99.90;;;;;;5053598;28;20052;-36
2023/03/22 08:56:13;;;;;;;14.77;5.25;;;11.30;99.90;;;;;;5053885;28;20053;-35
2023/03/22 08:58:41;;;;;;;14.57;4.80;;;11.40;99.90;;;;;;5054777;28;20140;-35
2023/03/22 09:01:11;;;;;;;14.90;5.25;;;11.50;99.90;;;;;;5054712;28;20138;-36
2023/03/22 09:03:38;;;;;;;13.20;4.65;;;11.60;99.90;;;;;;5054606;28;20053;-35
2023/03/22 09:06:05;;;;;;;14.15;5.32;;;11.60;99.90;;;;;;5054875;28;20053;-35
2023/03/22 09:08:32;;;;;;;15.98;5.18;;;11.60;99.90;;;;;;5054527;28;20427;-35
2023/03/22 09:11:00;;;;;;;15.73;5.18;;;11.70;99.90;;;;;;5053566;28;20092;-35
2023/03/22 09:13:29;;;;;;;13.50;4.57;;;11.70;99.90;;;;;;5051717;28;20057;-35
2023/03/22 09:15:56;;;;;;;16.23;4.10;;;11.80;99.90;;;;;;5053504;28;20059;-35
2023/03/22 09:18:23;;;;;;;18.48;5.22;;;11.80;99.90;;;;;;5054209;28;20053;-35
2023/03/22 09:20:50;;;;;;;15.10;4.75;;;11.90;99.90;;;;;;5054447;28;20052;-35
2023/03/22 09:23:16;;;;;;;18.48;5.43;;;11.90;99.90;;;;;;5053248;28;20106;-35
2023/03/22 09:25:43;;;;;;;20.27;4.97;;;11.90;99.90;;;;;;5051776;28;20048;-36
2023/03/22 09:28:11;;;;;;;14.93;4.25;;;11.90;99.90;;;;;;5052972;28;20657;-36
2023/03/22 09:30:38;;;;;;;15.80;4.43;;;11.90;99.90;;;;;;5053321;28;20610;-35
2023/03/22 09:33:06;;;;;;;18.75;4.43;;;11.90;99.90;;;;;;5053053;28;20080;-35
2023/03/22 09:35:33;;;;;;;17.08;4.30;;;11.90;99.90;;;;;;5054178;28;20091;-35
2023/03/22 09:38:00;;;;;;;13.93;4.35;;;11.90;99.90;;;;;;5054157;28;20049;-35
2023/03/22 09:40:28;;;;;;;16.33;4.32;;;11.90;99.90;;;;;;5053918;28;20084;-35
2023/03/22 09:42:55;;;;;;;15.50;4.45;;;11.90;99.90;;;;;;5053944;28;20041;-36
2023/03/22 09:45:29;;;;;;;12.25;3.88;;;12.00;99.90;;;;;;5052868;28;20076;-35
2023/03/22 09:47:56;;;;;;;15.73;3.90;;;12.00;99.90;;;;;;5052869;28;20093;-36
2023/03/22 09:50:25;;;;;;;13.32;3.55;;;12.00;99.90;;;;;;5052867;28;20088;-36
2023/03/22 09:52:51;;;;;;;11.07;4.18;;;12.00;99.90;;;;;;5053580;28;20420;-35
2023/03/22 09:55:20;;;;;;;16.63;4.18;;;11.90;99.90;;;;;;5052872;28;20079;-36
2023/03/22 09:57:48;;;;;;;12.45;3.50;;;11.90;99.90;;;;;;5052260;28;20045;-35
2023/03/22 10:00:17;;;;;;;12.35;3.92;;;11.90;99.90;;;;;;5053564;28;20119;-35
2023/03/22 10:02:53;;;;;;;15.18;3.85;;;11.80;99.90;;;;;;5053287;28;20052;-35
2023/03/22 10:05:23;;;;;;;15.65;3.75;;;11.80;99.90;;;;;;5053606;28;20088;-36
2023/03/22 10:08:01;;;;;;;15.85;3.47;;;11.80;99.90;;;;;;5052419;28;20089;-35
2023/03/22 10:10:28;;;;;;;12.70;3.63;;;11.70;99.90;;;;;;5053533;28;20049;-35
2023/03/22 10:12:58;;;;;;;12.93;3.88;;;11.70;99.90;;;;;;5052363;28;20374;-35
2023/03/22 10:15:28;;;;;;;17.25;4.35;;;11.70;99.90;;;;;;5052036;28;20085;-35
2023/03/22 10:17:56;;;;;;;11.75;3.60;;;11.70;99.90;;;;;;5052200;28;20113;-35
2023/03/22 10:20:30;;;;;;;14.60;4.15;;;11.70;99.90;;;;;;5053297;28;20048;-35
2023/03/22 10:22:57;;;;;;;17.88;3.60;;;11.70;99.90;;;;;;5053284;28;20049;-35
2023/03/22 10:25:34;;;;;;;9.07;2.78;;;11.70;99.90;;;;;;5053179;28;20052;-35
2023/03/22 10:28:00;;;;;;;12.75;3.58;;;11.70;99.90;;;;;;5052282;28;20110;-35
2023/03/22 10:30:28;;;;;;;10.73;3.22;;;11.70;99.90;;;;;;5052250;28;20428;-35
2023/03/22 10:32:59;;;;;;;14.13;2.97;;;11.70;99.90;;;;;;5052441;28;20114;-35
2023/03/22 10:35:26;;;;;;;14.07;3.10;;;11.60;99.90;;;;;;5031757;28;20053;-35
2023/03/22 10:37:54;;;;;;;10.60;3.65;;;11.60;99.90;;;;;;5032914;28;20556;-35
2023/03/22 10:40:23;;;;;;;11.15;3.25;;;11.60;99.90;;;;;;5034084;28;20041;-36
2023/03/22 10:42:52;;;;;;;16.23;3.38;;;11.60;99.90;;;;;;5035718;28;20107;-36
2023/03/22 10:45:19;;;;;;;12.20;3.55;;;11.60;99.90;;;;;;5051688;28;20056;-36
2023/03/22 10:47:48;;;;;;;10.43;3.60;;;11.60;99.90;;;;;;5052747;28;20060;-36
2023/03/22 10:50:18;;;;;;;12.93;3.40;;;11.60;99.90;;;;;;5051981;28;20045;-35
2023/03/22 10:52:47;;;;;;;13.88;3.45;;;11.60;99.90;;;;;;5068240;28;20154;-35
2023/03/22 10:55:15;;;;;;;17.13;3.67;;;11.60;99.90;;;;;;5051779;28;20053;-35
2023/03/22 10:57:42;;;;;;;15.32;3.53;;;11.60;99.90;;;;;;5051308;28;20540;-36
2023/03/22 11:00:11;;;;;;;15.10;3.95;;;11.50;99.90;;;;;;5051095;28;20077;-36
2023/03/22 11:02:46;;;;;;;14.52;3.65;;;11.50;99.90;;;;;;5052396;28;20096;-36
2023/03/22 11:05:21;;;;;;;14.52;3.50;;;11.50;99.90;;;;;;5052404;28;20053;-36
2023/03/22 11:07:48;;;;;;;11.48;3.35;;;11.40;99.90;;;;;;5052418;28;20049;-37
2023/03/22 11:10:21;;;;;;;11.93;4.00;;;11.30;99.90;;;;;;5050264;28;20152;-37
2023/03/22 11:12:49;;;;;;;13.18;3.47;;;11.40;99.90;;;;;;5052010;28;20056;-37
2023/03/22 11:15:25;;;;;;;14.43;3.63;;;11.40;99.90;;;;;;5051266;28;20056;-36
2023/03/22 11:17:54;;;;;;;12.32;3.50;;;11.40;99.90;;;;;;5052050;28;20133;-36
2023/03/22 11:20:23;;;;;;;9.68;3.28;;;11.30;99.90;;;;;;5052056;28;20085;-36
2023/03/22 11:22:50;;;;;;;9.18;3.55;;;11.30;99.90;;;;;;5052093;28;20111;-36
2023/03/22 11:25:19;;;;;;;8.57;3.30;;;11.30;99.90;;;;;;5052028;28;20394;-36
2023/03/22 11:27:50;;;;;;;11.52;3.53;;;11.30;99.90;;;;;;5051992;28;20044;-37
2023/03/22 11:30:21;;;;;;;12.63;3.70;;;11.20;99.90;;;;;;5051240;28;20099;-36
2023/03/22 11:32:48;;;;;;;13.15;3.63;;;11.30;99.90;;;;;;5050561;28;20049;-36
2023/03/22 11:35:17;;;;;;;12.65;3.50;;;11.30;99.90;;;;;;5051906;28;20142;-37
2023/03/22 11:37:46;;;;;;;10.95;3.80;;;11.30;99.90;;;;;;5051890;28;20129;-37
2023/03/22 11:40:15;;;;;;;12.68;3.15;;;11.30;99.90;;;;;;5050758;28;20183;-36
2023/03/22 11:42:42;;;;;;;12.15;3.40;;;11.30;99.90;;;;;;5051848;28;20041;-37
2023/03/22 11:45:10;;;;;;;10.45;3.65;;;11.30;99.90;;;;;;5050594;28;20056;-36
2023/03/22 11:47:38;;;;;;;14.48;3.53;;;11.30;99.90;;;;;;5050818;28;20045;-37
2023/03/22 11:50:05;;;;;;;8.30;2.88;;;11.30;99.90;;;;;;5051161;28;20409;-36
2023/03/22 11:52:32;;;;;;;11.05;3.33;;;11.30;99.90;;;;;;5051884;28;20049;-37
2023/03/22 11:55:00;;;;;;;13.82;3.08;;;11.30;99.90;;;;;;5050575;28;20414;-37
2023/03/22 11:57:28;;;;;;;11.52;3.15;;;11.40;99.90;;;;;;5050789;28;20130;-37
2023/03/22 11:59:57;;;;;;;12.05;3.30;;;11.30;99.90;;;;;;5050251;28;20381;-37
2023/03/22 12:02:26;;;;;;;13.68;3.55;;;11.30;99.90;;;;;;5051821;28;20049;-36
2023/03/22 12:04:56;;;;;;;13.43;3.75;;;11.30;99.90;;;;;;5050873;28;20094;-36
2023/03/22 12:07:23;;;;;;;12.55;4.00;;;11.30;99.90;;;;;;5050572;28;20045;-37
2023/03/22 12:09:52;;;;;;;16.50;3.97;;;11.30;99.90;;;;;;5050929;28;20132;-36
2023/03/22 12:12:21;;;;;;;9.77;3.38;;;11.30;99.90;;;;;;5051540;28;20330;-36
2023/03/22 12:14:51;;;;;;;10.93;3.80;;;11.30;99.90;;;;;;5052666;28;20055;-37
2023/03/22 12:17:23;;;;;;;17.70;3.85;;;11.30;99.90;;;;;;5058984;28;20050;-36
2023/03/22 12:19:53;;;;;;;16.33;4.03;;;11.30;99.90;;;;;;5030464;28;20065;-36
2023/03/22 12:22:21;;;;;;;16.02;4.50;;;11.30;99.90;;;;;;5030026;28;20567;-36
2023/03/22 12:24:48;;;;;;;14.20;3.70;;;11.30;99.90;;;;;;5048399;28;20098;-36
2023/03/22 12:27:17;;;;;;;9.95;3.58;;;11.30;99.90;;;;;;5049417;28;20488;-36
2023/03/22 12:29:47;;;;;;;17.55;4.07;;;11.30;99.90;;;;;;5064897;28;20044;-36
2023/03/22 12:32:17;;;;;;;13.25;3.83;;;11.20;99.90;;;;;;5068841;28;20056;-36
2023/03/22 12:34:46;;;;;;;11.23;3.70;;;11.30;99.90;;;;;;5071521;28;20094;-36
2023/03/22 12:37:15;;;;;;;11.48;3.70;;;11.20;99.90;;;;;;5071250;28;20049;-36
2023/03/22 12:39:45;;;;;;;12.95;4.18;;;11.20;99.90;;;;;;5050639;28;20048;-35
2023/03/22 12:42:16;;;;;;;11.80;3.78;;;11.20;99.90;;;;;;5046066;28;20084;-36
2023/03/22 12:44:44;;;;;;;10.07;3.65;;;11.20;99.90;;;;;;5064630;28;20094;-36